sensor_id;sensor_type;location;lat;lon;timestamp;P1;durP1;ratioP1;P2;durP2;ratioP2
30335;SDS011;17142;47.990;7.846;2022-07-06T05:16:40;1.53;;;1.10;;
30335;SDS011;17142;47.990;7.846;2022-07-06T05:19:06;3.73;;;1.90;;
30335;SDS011;17142;47.990;7.846;2022-07-06T05:21:34;2.20;;;1.73;;
30335;SDS011;17142;47.990;7.846;2022-07-06T05:23:59;3.70;;;1.73;;
30335;SDS011;17142;47.990;7.846;2022-07-06T05:26:25;4.17;;;1.63;;
30335;SDS011;17142;47.990;7.846;2022-07-06T05:28:53;1.17;;;1.07;;
30335;SDS011;17142;47.990;7.846;2022-07-06T05:31:19;1.60;;;1.33;;
30335;SDS011;17142;47.990;7.846;2022-07-06T05:33:44;2.23;;;1.30;;
30335;SDS011;17142;47.990;7.846;2022-07-06T05:36:12;1.70;;;1.50;;
30335;SDS011;17142;47.990;7.846;2022-07-06T05:38:37;1.70;;;1.60;;
30335;SDS011;17142;47.990;7.846;2022-07-06T05:41:03;2.80;;;1.80;;
30335;SDS011;17142;47.990;7.846;2022-07-06T05:43:31;2.43;;;1.70;;
30335;SDS011;17142;47.990;7.846;2022-07-06T05:45:57;4.50;;;2.23;;
30335;SDS011;17142;47.990;7.846;2022-07-06T05:48:22;6.40;;;2.10;;
30335;SDS011;17142;47.990;7.846;2022-07-06T05:51:09;3.23;;;2.60;;
30335;SDS011;17142;47.990;7.846;2022-07-06T05:53:35;3.40;;;2.00;;
30335;SDS011;17142;47.990;7.846;2022-07-06T05:56:00;5.20;;;2.27;;
30335;SDS011;17142;47.990;7.846;2022-07-06T05:58:26;3.70;;;2.60;;
30335;SDS011;17142;47.990;7.846;2022-07-06T06:00:52;3.77;;;2.13;;
30335;SDS011;17142;47.990;7.846;2022-07-06T06:03:17;2.53;;;2.33;;
30335;SDS011;17142;47.990;7.846;2022-07-06T06:05:43;2.63;;;2.43;;
30335;SDS011;17142;47.990;7.846;2022-07-06T06:08:11;2.10;;;1.90;;
30335;SDS011;17142;47.990;7.846;2022-07-06T06:10:37;4.17;;;3.23;;
30335;SDS011;17142;47.990;7.846;2022-07-06T06:13:02;4.60;;;2.80;;
30335;SDS011;17142;47.990;7.846;2022-07-06T06:15:28;4.13;;;2.50;;
30335;SDS011;17142;47.990;7.846;2022-07-06T06:17:54;3.97;;;2.33;;
30335;SDS011;17142;47.990;7.846;2022-07-06T06:20:20;2.67;;;2.30;;
30335;SDS011;17142;47.990;7.846;2022-07-06T06:22:55;3.23;;;2.23;;
30335;SDS011;17142;47.990;7.846;2022-07-06T06:25:29;1.80;;;1.70;;
30335;SDS011;17142;47.990;7.846;2022-07-06T06:27:59;2.23;;;1.80;;
30335;SDS011;17142;47.990;7.846;2022-07-06T06:30:28;2.53;;;1.60;;
30335;SDS011;17142;47.990;7.846;2022-07-06T06:33:10;3.83;;;2.10;;
30335;SDS011;17142;47.990;7.846;2022-07-06T06:35:46;3.30;;;1.90;;
30335;SDS011;17142;47.990;7.846;2022-07-06T06:38:13;3.90;;;2.40;;
30335;SDS011;17142;47.990;7.846;2022-07-06T06:40:40;4.17;;;2.40;;
30335;SDS011;17142;47.990;7.846;2022-07-06T06:43:05;7.83;;;2.40;;
30335;SDS011;17142;47.990;7.846;2022-07-06T06:45:31;2.57;;;1.70;;
30335;SDS011;17142;47.990;7.846;2022-07-06T06:47:59;2.60;;;1.70;;
30335;SDS011;17142;47.990;7.846;2022-07-06T06:50:25;2.50;;;1.70;;
30335;SDS011;17142;47.990;7.846;2022-07-06T06:52:51;3.30;;;1.93;;
30335;SDS011;17142;47.990;7.846;2022-07-06T06:55:17;3.57;;;2.40;;
30335;SDS011;17142;47.990;7.846;2022-07-06T06:57:44;2.60;;;1.87;;
30335;SDS011;17142;47.990;7.846;2022-07-06T07:00:11;5.80;;;2.50;;
30335;SDS011;17142;47.990;7.846;2022-07-06T07:02:37;1.90;;;1.57;;
30335;SDS011;17142;47.990;7.846;2022-07-06T07:05:03;3.60;;;2.23;;
30335;SDS011;17142;47.990;7.846;2022-07-06T07:07:30;2.60;;;2.37;;
30335;SDS011;17142;47.990;7.846;2022-07-06T07:09:55;2.40;;;2.20;;
30335;SDS011;17142;47.990;7.846;2022-07-06T07:12:21;1.83;;;1.57;;
30335;SDS011;17142;47.990;7.846;2022-07-06T07:14:47;3.30;;;2.53;;
30335;SDS011;17142;47.990;7.846;2022-07-06T07:17:13;2.30;;;2.10;;
30335;SDS011;17142;47.990;7.846;2022-07-06T07:19:39;3.60;;;2.40;;
30335;SDS011;17142;47.990;7.846;2022-07-06T07:22:05;2.80;;;2.47;;
30335;SDS011;17142;47.990;7.846;2022-07-06T07:24:31;3.17;;;2.40;;
30335;SDS011;17142;47.990;7.846;2022-07-06T07:26:56;3.40;;;2.80;;
30335;SDS011;17142;47.990;7.846;2022-07-06T07:29:27;3.47;;;2.90;;
30335;SDS011;17142;47.990;7.846;2022-07-06T07:31:52;3.33;;;3.10;;
30335;SDS011;17142;47.990;7.846;2022-07-06T07:34:18;4.27;;;3.13;;
30335;SDS011;17142;47.990;7.846;2022-07-06T07:36:44;4.33;;;3.13;;
30335;SDS011;17142;47.990;7.846;2022-07-06T07:39:09;2.80;;;2.60;;
30335;SDS011;17142;47.990;7.846;2022-07-06T07:41:35;9.20;;;3.80;;
30335;SDS011;17142;47.990;7.846;2022-07-06T07:44:01;5.40;;;3.20;;
30335;SDS011;17142;47.990;7.846;2022-07-06T07:46:26;5.73;;;2.93;;
30335;SDS011;17142;47.990;7.846;2022-07-06T07:48:54;5.50;;;3.73;;
30335;SDS011;17142;47.990;7.846;2022-07-06T07:51:20;3.17;;;2.40;;
30335;SDS011;17142;47.990;7.846;2022-07-06T07:53:46;4.27;;;3.23;;
30335;SDS011;17142;47.990;7.846;2022-07-06T07:56:12;4.07;;;3.20;;
30335;SDS011;17142;47.990;7.846;2022-07-06T07:58:40;6.97;;;3.20;;
30335;SDS011;17142;47.990;7.846;2022-07-06T08:01:07;4.93;;;2.80;;
30335;SDS011;17142;47.990;7.846;2022-07-06T08:03:33;4.80;;;2.97;;
30335;SDS011;17142;47.990;7.846;2022-07-06T08:05:59;4.17;;;2.43;;
30335;SDS011;17142;47.990;7.846;2022-07-06T08:08:24;7.33;;;3.60;;
30335;SDS011;17142;47.990;7.846;2022-07-06T08:10:52;4.20;;;2.47;;
30335;SDS011;17142;47.990;7.846;2022-07-06T08:13:18;2.97;;;2.67;;
30335;SDS011;17142;47.990;7.846;2022-07-06T08:15:43;4.70;;;3.10;;
30335;SDS011;17142;47.990;7.846;2022-07-06T08:18:11;2.97;;;2.43;;
30335;SDS011;17142;47.990;7.846;2022-07-06T08:20:40;2.80;;;2.47;;
30335;SDS011;17142;47.990;7.846;2022-07-06T08:23:05;5.30;;;2.67;;
30335;SDS011;17142;47.990;7.846;2022-07-06T08:25:31;3.10;;;2.80;;
30335;SDS011;17142;47.990;7.846;2022-07-06T08:27:57;3.10;;;2.53;;
30335;SDS011;17142;47.990;7.846;2022-07-06T08:30:22;6.00;;;3.10;;
30335;SDS011;17142;47.990;7.846;2022-07-06T08:32:50;3.20;;;2.13;;
30335;SDS011;17142;47.990;7.846;2022-07-06T08:35:16;2.80;;;2.60;;
30335;SDS011;17142;47.990;7.846;2022-07-06T08:37:44;3.53;;;2.77;;
30335;SDS011;17142;47.990;7.846;2022-07-06T08:40:10;2.30;;;2.10;;
30335;SDS011;17142;47.990;7.846;2022-07-06T08:42:36;5.03;;;2.87;;
30335;SDS011;17142;47.990;7.846;2022-07-06T08:45:05;6.60;;;3.27;;
30335;SDS011;17142;47.990;7.846;2022-07-06T08:47:39;3.10;;;2.57;;
30335;SDS011;17142;47.990;7.846;2022-07-06T08:50:07;4.07;;;2.30;;
30335;SDS011;17142;47.990;7.846;2022-07-06T08:52:35;8.07;;;3.53;;
30335;SDS011;17142;47.990;7.846;2022-07-06T08:55:03;8.53;;;3.00;;
30335;SDS011;17142;47.990;7.846;2022-07-06T08:57:29;2.77;;;2.47;;
30335;SDS011;17142;47.990;7.846;2022-07-06T08:59:55;5.20;;;2.30;;
30335;SDS011;17142;47.990;7.846;2022-07-06T09:02:22;3.10;;;2.50;;
30335;SDS011;17142;47.990;7.846;2022-07-06T09:04:53;3.80;;;2.70;;
30335;SDS011;17142;47.990;7.846;2022-07-06T09:07:24;4.20;;;3.17;;
30335;SDS011;17142;47.990;7.846;2022-07-06T09:09:55;2.40;;;2.20;;
30335;SDS011;17142;47.990;7.846;2022-07-06T09:12:25;2.97;;;2.60;;
30335;SDS011;17142;47.990;7.846;2022-07-06T09:14:53;7.37;;;2.73;;
30335;SDS011;17142;47.990;7.846;2022-07-06T09:17:21;3.13;;;2.83;;
30335;SDS011;17142;47.990;7.846;2022-07-06T09:19:52;3.47;;;3.00;;
30335;SDS011;17142;47.990;7.846;2022-07-06T09:22:29;4.70;;;2.80;;
30335;SDS011;17142;47.990;7.846;2022-07-06T09:25:07;6.27;;;3.37;;
30335;SDS011;17142;47.990;7.846;2022-07-06T09:27:38;3.40;;;2.83;;
30335;SDS011;17142;47.990;7.846;2022-07-06T09:30:04;3.20;;;2.90;;
30335;SDS011;17142;47.990;7.846;2022-07-06T09:35:23;4.17;;;3.23;;
30335;SDS011;17142;47.990;7.846;2022-07-06T09:40:42;3.87;;;3.10;;
30335;SDS011;17142;47.990;7.846;2022-07-06T09:45:41;4.90;;;3.47;;
30335;SDS011;17142;47.990;7.846;2022-07-06T09:48:12;2.80;;;2.50;;
30335;SDS011;17142;47.990;7.846;2022-07-06T09:50:44;3.97;;;3.20;;
30335;SDS011;17142;47.990;7.846;2022-07-06T09:53:12;4.70;;;3.07;;
30335;SDS011;17142;47.990;7.846;2022-07-06T09:55:38;5.00;;;2.70;;
30335;SDS011;17142;47.990;7.846;2022-07-06T09:58:08;2.60;;;2.40;;
30335;SDS011;17142;47.990;7.846;2022-07-06T10:00:34;4.20;;;2.40;;
30335;SDS011;17142;47.990;7.846;2022-07-06T10:03:05;2.63;;;2.43;;
30335;SDS011;17142;47.990;7.846;2022-07-06T10:05:30;2.90;;;2.60;;
30335;SDS011;17142;47.990;7.846;2022-07-06T10:07:58;5.23;;;2.73;;
30335;SDS011;17142;47.990;7.846;2022-07-06T10:10:28;2.70;;;2.43;;
30335;SDS011;17142;47.990;7.846;2022-07-06T10:12:58;3.27;;;2.50;;
30335;SDS011;17142;47.990;7.846;2022-07-06T10:15:25;2.27;;;2.17;;
30335;SDS011;17142;47.990;7.846;2022-07-06T10:17:52;4.43;;;2.80;;
30335;SDS011;17142;47.990;7.846;2022-07-06T10:20:21;4.00;;;2.20;;
30335;SDS011;17142;47.990;7.846;2022-07-06T10:22:47;3.73;;;2.60;;
30335;SDS011;17142;47.990;7.846;2022-07-06T10:25:15;4.17;;;2.20;;
30335;SDS011;17142;47.990;7.846;2022-07-06T10:27:49;2.90;;;2.20;;
30335;SDS011;17142;47.990;7.846;2022-07-06T10:30:17;2.60;;;2.40;;
30335;SDS011;17142;47.990;7.846;2022-07-06T10:32:43;2.90;;;1.97;;
30335;SDS011;17142;47.990;7.846;2022-07-06T10:35:13;5.13;;;1.90;;
30335;SDS011;17142;47.990;7.846;2022-07-06T10:37:39;2.30;;;2.10;;
30335;SDS011;17142;47.990;7.846;2022-07-06T10:40:07;4.50;;;2.50;;
30335;SDS011;17142;47.990;7.846;2022-07-06T10:42:59;2.07;;;1.63;;
30335;SDS011;17142;47.990;7.846;2022-07-06T10:50:40;2.57;;;2.10;;
30335;SDS011;17142;47.990;7.846;2022-07-06T10:53:11;5.80;;;3.03;;
30335;SDS011;17142;47.990;7.846;2022-07-06T10:55:40;4.23;;;2.80;;
30335;SDS011;17142;47.990;7.846;2022-07-06T10:58:09;2.53;;;2.20;;
30335;SDS011;17142;47.990;7.846;2022-07-06T11:00:52;5.10;;;2.63;;
30335;SDS011;17142;47.990;7.846;2022-07-06T11:08:58;3.10;;;2.20;;
30335;SDS011;17142;47.990;7.846;2022-07-06T11:14:04;2.23;;;1.80;;
30335;SDS011;17142;47.990;7.846;2022-07-06T11:16:33;2.50;;;2.00;;
30335;SDS011;17142;47.990;7.846;2022-07-06T11:19:11;4.33;;;2.00;;
30335;SDS011;17142;47.990;7.846;2022-07-06T11:24:07;3.47;;;2.20;;
30335;SDS011;17142;47.990;7.846;2022-07-06T11:26:35;2.10;;;1.70;;
30335;SDS011;17142;47.990;7.846;2022-07-06T11:29:02;2.60;;;2.10;;
30335;SDS011;17142;47.990;7.846;2022-07-06T11:31:33;3.40;;;1.63;;
30335;SDS011;17142;47.990;7.846;2022-07-06T11:34:01;3.83;;;1.67;;
30335;SDS011;17142;47.990;7.846;2022-07-06T11:36:31;6.63;;;2.30;;
30335;SDS011;17142;47.990;7.846;2022-07-06T11:38:57;4.23;;;2.27;;
30335;SDS011;17142;47.990;7.846;2022-07-06T11:41:25;2.33;;;2.00;;
30335;SDS011;17142;47.990;7.846;2022-07-06T11:43:51;1.73;;;1.63;;
30335;SDS011;17142;47.990;7.846;2022-07-06T11:48:48;4.13;;;2.23;;
30335;SDS011;17142;47.990;7.846;2022-07-06T11:51:14;4.87;;;2.13;;
30335;SDS011;17142;47.990;7.846;2022-07-06T11:53:45;2.30;;;1.77;;
30335;SDS011;17142;47.990;7.846;2022-07-06T11:56:15;3.27;;;2.20;;
30335;SDS011;17142;47.990;7.846;2022-07-06T11:58:43;3.10;;;2.20;;
30335;SDS011;17142;47.990;7.846;2022-07-06T12:01:12;2.60;;;1.80;;
30335;SDS011;17142;47.990;7.846;2022-07-06T12:03:39;4.07;;;2.30;;
30335;SDS011;17142;47.990;7.846;2022-07-06T12:06:05;9.60;;;3.20;;
30335;SDS011;17142;47.990;7.846;2022-07-06T12:08:41;3.63;;;2.30;;
30335;SDS011;17142;47.990;7.846;2022-07-06T12:11:08;2.60;;;2.40;;
30335;SDS011;17142;47.990;7.846;2022-07-06T12:13:38;4.30;;;2.60;;
30335;SDS011;17142;47.990;7.846;2022-07-06T12:16:10;2.70;;;2.37;;
30335;SDS011;17142;47.990;7.846;2022-07-06T12:18:40;2.90;;;2.00;;
30335;SDS011;17142;47.990;7.846;2022-07-06T12:21:14;5.90;;;2.10;;
30335;SDS011;17142;47.990;7.846;2022-07-06T12:23:49;3.10;;;2.27;;
30335;SDS011;17142;47.990;7.846;2022-07-06T12:26:17;5.33;;;1.80;;
30335;SDS011;17142;47.990;7.846;2022-07-06T12:28:54;2.60;;;1.97;;
30335;SDS011;17142;47.990;7.846;2022-07-06T12:31:31;2.00;;;1.90;;
30335;SDS011;17142;47.990;7.846;2022-07-06T12:34:01;3.63;;;1.87;;
30335;SDS011;17142;47.990;7.846;2022-07-06T12:36:29;2.60;;;2.40;;
30335;SDS011;17142;47.990;7.846;2022-07-06T12:38:56;3.03;;;2.23;;
30335;SDS011;17142;47.990;7.846;2022-07-06T12:41:28;6.17;;;2.20;;
30335;SDS011;17142;47.990;7.846;2022-07-06T12:44:09;2.30;;;2.03;;
30335;SDS011;17142;47.990;7.846;2022-07-06T12:46:41;4.40;;;2.30;;
30335;SDS011;17142;47.990;7.846;2022-07-06T12:49:11;2.27;;;2.07;;
30335;SDS011;17142;47.990;7.846;2022-07-06T12:54:15;2.73;;;2.10;;
30335;SDS011;17142;47.990;7.846;2022-07-06T12:56:57;4.30;;;2.50;;
30335;SDS011;17142;47.990;7.846;2022-07-06T12:59:28;3.37;;;2.20;;
30335;SDS011;17142;47.990;7.846;2022-07-06T13:01:54;3.47;;;2.47;;
30335;SDS011;17142;47.990;7.846;2022-07-06T13:04:21;2.50;;;2.23;;
30335;SDS011;17142;47.990;7.846;2022-07-06T13:06:51;2.77;;;2.23;;
30335;SDS011;17142;47.990;7.846;2022-07-06T13:09:17;5.70;;;2.30;;
30335;SDS011;17142;47.990;7.846;2022-07-06T13:11:44;3.00;;;2.20;;
30335;SDS011;17142;47.990;7.846;2022-07-06T13:14:11;2.40;;;2.20;;
30335;SDS011;17142;47.990;7.846;2022-07-06T13:16:37;3.70;;;2.67;;
30335;SDS011;17142;47.990;7.846;2022-07-06T13:19:03;4.27;;;3.63;;
30335;SDS011;17142;47.990;7.846;2022-07-06T13:21:31;3.00;;;2.70;;
30335;SDS011;17142;47.990;7.846;2022-07-06T13:23:59;3.93;;;2.90;;
30335;SDS011;17142;47.990;7.846;2022-07-06T13:26:28;4.77;;;2.90;;
30335;SDS011;17142;47.990;7.846;2022-07-06T13:28:56;3.67;;;2.43;;
30335;SDS011;17142;47.990;7.846;2022-07-06T13:31:22;3.00;;;2.40;;
30335;SDS011;17142;47.990;7.846;2022-07-06T13:33:47;2.47;;;2.00;;
30335;SDS011;17142;47.990;7.846;2022-07-06T13:36:15;2.53;;;2.10;;
30335;SDS011;17142;47.990;7.846;2022-07-06T13:38:41;3.10;;;2.27;;
30335;SDS011;17142;47.990;7.846;2022-07-06T13:41:06;3.77;;;2.30;;
30335;SDS011;17142;47.990;7.846;2022-07-06T13:43:32;2.40;;;2.20;;
30335;SDS011;17142;47.990;7.846;2022-07-06T13:46:04;2.80;;;2.60;;
30335;SDS011;17142;47.990;7.846;2022-07-06T13:48:31;4.10;;;2.10;;
30335;SDS011;17142;47.990;7.846;2022-07-06T13:50:58;2.50;;;2.30;;
30335;SDS011;17142;47.990;7.846;2022-07-06T13:53:23;6.63;;;2.80;;
30335;SDS011;17142;47.990;7.846;2022-07-06T13:55:49;3.27;;;2.97;;
30335;SDS011;17142;47.990;7.846;2022-07-06T13:58:17;7.27;;;2.97;;
30335;SDS011;17142;47.990;7.846;2022-07-06T14:00:43;4.50;;;2.80;;
30335;SDS011;17142;47.990;7.846;2022-07-06T14:03:09;3.00;;;2.30;;
30335;SDS011;17142;47.990;7.846;2022-07-06T14:05:35;3.87;;;2.33;;
30335;SDS011;17142;47.990;7.846;2022-07-06T14:08:01;2.47;;;2.00;;
30335;SDS011;17142;47.990;7.846;2022-07-06T14:10:29;4.20;;;2.33;;
30335;SDS011;17142;47.990;7.846;2022-07-06T14:12:55;5.07;;;2.80;;
30335;SDS011;17142;47.990;7.846;2022-07-06T14:15:23;2.57;;;2.30;;
30335;SDS011;17142;47.990;7.846;2022-07-06T14:17:54;3.40;;;2.30;;
30335;SDS011;17142;47.990;7.846;2022-07-06T14:20:19;4.50;;;2.73;;
30335;SDS011;17142;47.990;7.846;2022-07-06T14:22:45;6.13;;;2.60;;
30335;SDS011;17142;47.990;7.846;2022-07-06T14:25:10;5.43;;;2.70;;
30335;SDS011;17142;47.990;7.846;2022-07-06T14:27:36;3.43;;;2.03;;
30335;SDS011;17142;47.990;7.846;2022-07-06T14:30:02;2.43;;;2.23;;
30335;SDS011;17142;47.990;7.846;2022-07-06T14:32:28;5.17;;;2.93;;
30335;SDS011;17142;47.990;7.846;2022-07-06T14:34:54;2.40;;;2.20;;
30335;SDS011;17142;47.990;7.846;2022-07-06T14:37:20;2.73;;;2.53;;
30335;SDS011;17142;47.990;7.846;2022-07-06T14:39:46;2.87;;;2.37;;
30335;SDS011;17142;47.990;7.846;2022-07-06T14:42:13;3.93;;;2.23;;
30335;SDS011;17142;47.990;7.846;2022-07-06T14:44:39;2.90;;;1.90;;
30335;SDS011;17142;47.990;7.846;2022-07-06T14:47:05;3.70;;;2.40;;
30335;SDS011;17142;47.990;7.846;2022-07-06T14:49:31;4.40;;;2.20;;
30335;SDS011;17142;47.990;7.846;2022-07-06T14:51:59;2.97;;;2.30;;
30335;SDS011;17142;47.990;7.846;2022-07-06T14:54:25;2.43;;;1.70;;
30335;SDS011;17142;47.990;7.846;2022-07-06T14:56:53;2.83;;;2.20;;
30335;SDS011;17142;47.990;7.846;2022-07-06T14:59:19;4.00;;;2.30;;
30335;SDS011;17142;47.990;7.846;2022-07-06T15:01:45;2.50;;;2.33;;
30335;SDS011;17142;47.990;7.846;2022-07-06T15:04:11;4.67;;;1.80;;
30335;SDS011;17142;47.990;7.846;2022-07-06T15:06:37;3.93;;;2.30;;
30335;SDS011;17142;47.990;7.846;2022-07-06T15:09:05;1.97;;;1.80;;
30335;SDS011;17142;47.990;7.846;2022-07-06T15:11:31;2.70;;;1.90;;
30335;SDS011;17142;47.990;7.846;2022-07-06T15:13:56;4.10;;;2.23;;
30335;SDS011;17142;47.990;7.846;2022-07-06T15:16:22;2.53;;;2.23;;
30335;SDS011;17142;47.990;7.846;2022-07-06T15:18:51;3.33;;;2.20;;
30335;SDS011;17142;47.990;7.846;2022-07-06T15:21:22;2.00;;;1.80;;
30335;SDS011;17142;47.990;7.846;2022-07-06T15:23:48;3.73;;;2.40;;
30335;SDS011;17142;47.990;7.846;2022-07-06T15:26:16;3.13;;;2.30;;
30335;SDS011;17142;47.990;7.846;2022-07-06T15:28:41;3.13;;;2.10;;
30335;SDS011;17142;47.990;7.846;2022-07-06T15:31:07;2.43;;;2.00;;
30335;SDS011;17142;47.990;7.846;2022-07-06T15:33:33;3.30;;;2.60;;
30335;SDS011;17142;47.990;7.846;2022-07-06T15:35:58;2.43;;;2.13;;
30335;SDS011;17142;47.990;7.846;2022-07-06T15:38:24;2.70;;;1.93;;
30335;SDS011;17142;47.990;7.846;2022-07-06T15:40:52;2.30;;;2.03;;
30335;SDS011;17142;47.990;7.846;2022-07-06T15:43:23;1.80;;;1.70;;
30335;SDS011;17142;47.990;7.846;2022-07-06T15:45:51;3.00;;;1.97;;
30335;SDS011;17142;47.990;7.846;2022-07-06T15:48:20;2.33;;;2.10;;
30335;SDS011;17142;47.990;7.846;2022-07-06T15:50:48;2.87;;;2.30;;
30335;SDS011;17142;47.990;7.846;2022-07-06T15:53:14;2.10;;;1.90;;
30335;SDS011;17142;47.990;7.846;2022-07-06T15:55:43;5.70;;;2.20;;
30335;SDS011;17142;47.990;7.846;2022-07-06T15:58:09;4.13;;;2.00;;
30335;SDS011;17142;47.990;7.846;2022-07-06T16:00:37;3.93;;;1.50;;
30335;SDS011;17142;47.990;7.846;2022-07-06T16:03:03;1.60;;;1.50;;
30335;SDS011;17142;47.990;7.846;2022-07-06T16:05:29;1.60;;;1.50;;
30335;SDS011;17142;47.990;7.846;2022-07-06T16:07:55;5.77;;;1.60;;
30335;SDS011;17142;47.990;7.846;2022-07-06T16:10:25;2.90;;;1.53;;
30335;SDS011;17142;47.990;7.846;2022-07-06T16:12:53;2.80;;;1.67;;
30335;SDS011;17142;47.990;7.846;2022-07-06T16:15:19;1.43;;;1.30;;
30335;SDS011;17142;47.990;7.846;2022-07-06T16:17:45;2.20;;;1.30;;
30335;SDS011;17142;47.990;7.846;2022-07-06T16:20:11;1.63;;;1.53;;
30335;SDS011;17142;47.990;7.846;2022-07-06T16:22:42;2.20;;;1.43;;
30335;SDS011;17142;47.990;7.846;2022-07-06T16:25:11;1.03;;;0.93;;
30335;SDS011;17142;47.990;7.846;2022-07-06T16:27:41;3.30;;;1.30;;
30335;SDS011;17142;47.990;7.846;2022-07-06T16:30:07;3.47;;;1.20;;
30335;SDS011;17142;47.990;7.846;2022-07-06T16:32:34;1.13;;;1.00;;
30335;SDS011;17142;47.990;7.846;2022-07-06T16:35:00;0.93;;;0.83;;
30335;SDS011;17142;47.990;7.846;2022-07-06T16:37:26;3.00;;;1.07;;
30335;SDS011;17142;47.990;7.846;2022-07-06T16:39:52;0.87;;;0.70;;
30335;SDS011;17142;47.990;7.846;2022-07-06T16:42:18;2.70;;;1.10;;
30335;SDS011;17142;47.990;7.846;2022-07-06T16:44:46;0.70;;;0.63;;
30335;SDS011;17142;47.990;7.846;2022-07-06T16:47:14;4.23;;;1.30;;
30335;SDS011;17142;47.990;7.846;2022-07-06T16:49:40;2.17;;;0.73;;
30335;SDS011;17142;47.990;7.846;2022-07-06T16:52:05;2.93;;;1.37;;
30335;SDS011;17142;47.990;7.846;2022-07-06T16:54:31;1.40;;;0.87;;
30335;SDS011;17142;47.990;7.846;2022-07-06T16:56:57;3.53;;;1.33;;
30335;SDS011;17142;47.990;7.846;2022-07-06T16:59:23;3.57;;;1.03;;
30335;SDS011;17142;47.990;7.846;2022-07-06T17:01:50;3.27;;;1.40;;
30335;SDS011;17142;47.990;7.846;2022-07-06T17:04:16;1.87;;;1.40;;
30335;SDS011;17142;47.990;7.846;2022-07-06T17:06:42;5.93;;;1.53;;
30335;SDS011;17142;47.990;7.846;2022-07-06T17:09:07;1.90;;;1.03;;
30335;SDS011;17142;47.990;7.846;2022-07-06T17:11:35;1.37;;;0.63;;
30335;SDS011;17142;47.990;7.846;2022-07-06T17:14:01;2.10;;;0.80;;
30335;SDS011;17142;47.990;7.846;2022-07-06T17:16:27;4.10;;;1.03;;
30335;SDS011;17142;47.990;7.846;2022-07-06T17:18:52;1.30;;;0.77;;
30335;SDS011;17142;47.990;7.846;2022-07-06T17:21:21;1.00;;;0.83;;
30335;SDS011;17142;47.990;7.846;2022-07-06T17:23:47;2.43;;;1.20;;
30335;SDS011;17142;47.990;7.846;2022-07-06T17:26:16;0.97;;;0.80;;
30335;SDS011;17142;47.990;7.846;2022-07-06T17:28:41;6.03;;;1.00;;
30335;SDS011;17142;47.990;7.846;2022-07-06T17:31:07;1.00;;;0.60;;
30335;SDS011;17142;47.990;7.846;2022-07-06T17:33:32;2.57;;;1.53;;
30335;SDS011;17142;47.990;7.846;2022-07-06T17:35:59;1.27;;;0.87;;
30335;SDS011;17142;47.990;7.846;2022-07-06T17:38:27;3.60;;;0.93;;
30335;SDS011;17142;47.990;7.846;2022-07-06T17:40:55;3.23;;;0.80;;
30335;SDS011;17142;47.990;7.846;2022-07-06T17:43:21;1.90;;;1.23;;
30335;SDS011;17142;47.990;7.846;2022-07-06T17:45:49;4.50;;;1.33;;
30335;SDS011;17142;47.990;7.846;2022-07-06T17:48:14;1.87;;;1.13;;
30335;SDS011;17142;47.990;7.846;2022-07-06T17:50:42;1.20;;;1.00;;
30335;SDS011;17142;47.990;7.846;2022-07-06T17:53:08;3.33;;;1.20;;
30335;SDS011;17142;47.990;7.846;2022-07-06T17:55:34;2.20;;;1.30;;
30335;SDS011;17142;47.990;7.846;2022-07-06T17:58:01;2.23;;;1.03;;
30335;SDS011;17142;47.990;7.846;2022-07-06T18:00:29;3.83;;;1.17;;
30335;SDS011;17142;47.990;7.846;2022-07-06T18:02:58;2.70;;;1.00;;
30335;SDS011;17142;47.990;7.846;2022-07-06T18:05:24;1.20;;;1.00;;
30335;SDS011;17142;47.990;7.846;2022-07-06T18:07:52;1.20;;;1.10;;
30335;SDS011;17142;47.990;7.846;2022-07-06T18:10:19;3.20;;;1.50;;
30335;SDS011;17142;47.990;7.846;2022-07-06T18:12:45;3.30;;;1.40;;
30335;SDS011;17142;47.990;7.846;2022-07-06T18:15:10;1.93;;;1.20;;
30335;SDS011;17142;47.990;7.846;2022-07-06T18:17:36;9.13;;;1.10;;
30335;SDS011;17142;47.990;7.846;2022-07-06T18:20:02;2.00;;;1.50;;
30335;SDS011;17142;47.990;7.846;2022-07-06T18:22:31;1.93;;;1.10;;
30335;SDS011;17142;47.990;7.846;2022-07-06T18:24:57;4.80;;;1.80;;
30335;SDS011;17142;47.990;7.846;2022-07-06T18:27:22;2.30;;;1.33;;
30335;SDS011;17142;47.990;7.846;2022-07-06T18:29:48;2.00;;;1.10;;
30335;SDS011;17142;47.990;7.846;2022-07-06T18:32:14;2.50;;;1.27;;
30335;SDS011;17142;47.990;7.846;2022-07-06T18:34:39;3.17;;;1.40;;
30335;SDS011;17142;47.990;7.846;2022-07-06T18:37:07;3.03;;;1.37;;
30335;SDS011;17142;47.990;7.846;2022-07-06T18:39:33;1.60;;;0.97;;
30335;SDS011;17142;47.990;7.846;2022-07-06T18:41:58;3.10;;;1.20;;
30335;SDS011;17142;47.990;7.846;2022-07-06T18:44:24;1.73;;;1.07;;
30335;SDS011;17142;47.990;7.846;2022-07-06T18:46:50;1.30;;;1.20;;
30335;SDS011;17142;47.990;7.846;2022-07-06T18:49:15;1.47;;;1.17;;
30335;SDS011;17142;47.990;7.846;2022-07-06T18:51:41;1.03;;;0.83;;
30335;SDS011;17142;47.990;7.846;2022-07-06T18:54:07;8.07;;;2.43;;
30335;SDS011;17142;47.990;7.846;2022-07-06T18:56:35;2.10;;;1.00;;
30335;SDS011;17142;47.990;7.846;2022-07-06T18:59:00;4.80;;;1.30;;
30335;SDS011;17142;47.990;7.846;2022-07-06T19:01:26;1.63;;;1.23;;
30335;SDS011;17142;47.990;7.846;2022-07-06T19:03:52;2.77;;;1.67;;
30335;SDS011;17142;47.990;7.846;2022-07-06T19:06:18;1.57;;;1.20;;
30335;SDS011;17142;47.990;7.846;2022-07-06T19:08:44;1.60;;;1.50;;
30335;SDS011;17142;47.990;7.846;2022-07-06T19:11:12;1.87;;;1.10;;
30335;SDS011;17142;47.990;7.846;2022-07-06T19:13:41;4.90;;;1.23;;
30335;SDS011;17142;47.990;7.846;2022-07-06T19:16:06;1.80;;;1.17;;
30335;SDS011;17142;47.990;7.846;2022-07-06T19:18:33;1.93;;;1.20;;
30335;SDS011;17142;47.990;7.846;2022-07-06T19:21:04;3.27;;;1.43;;
30335;SDS011;17142;47.990;7.846;2022-07-06T19:23:30;2.50;;;1.10;;
30335;SDS011;17142;47.990;7.846;2022-07-06T19:25:56;2.40;;;1.17;;
30335;SDS011;17142;47.990;7.846;2022-07-06T19:28:25;3.70;;;0.93;;
30335;SDS011;17142;47.990;7.846;2022-07-06T19:30:53;2.73;;;1.30;;
30335;SDS011;17142;47.990;7.846;2022-07-06T19:33:18;3.07;;;1.10;;
30335;SDS011;17142;47.990;7.846;2022-07-06T19:35:44;4.37;;;1.30;;
30335;SDS011;17142;47.990;7.846;2022-07-06T19:38:10;1.77;;;1.27;;
30335;SDS011;17142;47.990;7.846;2022-07-06T19:40:38;2.13;;;1.70;;
30335;SDS011;17142;47.990;7.846;2022-07-06T19:43:05;2.50;;;1.10;;
30335;SDS011;17142;47.990;7.846;2022-07-06T19:45:31;1.53;;;0.90;;
30335;SDS011;17142;47.990;7.846;2022-07-06T19:47:57;2.90;;;1.30;;
30335;SDS011;17142;47.990;7.846;2022-07-06T19:50:22;2.23;;;1.00;;
30335;SDS011;17142;47.990;7.846;2022-07-06T19:52:48;4.10;;;1.40;;
30335;SDS011;17142;47.990;7.846;2022-07-06T19:55:14;1.20;;;1.10;;
30335;SDS011;17142;47.990;7.846;2022-07-06T19:57:41;2.83;;;1.60;;
30335;SDS011;17142;47.990;7.846;2022-07-06T20:00:07;2.30;;;1.07;;
30335;SDS011;17142;47.990;7.846;2022-07-06T20:02:36;1.27;;;0.90;;
30335;SDS011;17142;47.990;7.846;2022-07-06T20:05:02;2.27;;;1.63;;
30335;SDS011;17142;47.990;7.846;2022-07-06T20:07:29;2.70;;;1.10;;
30335;SDS011;17142;47.990;7.846;2022-07-06T20:09:59;2.70;;;1.67;;
30335;SDS011;17142;47.990;7.846;2022-07-06T20:12:27;2.50;;;1.10;;
30335;SDS011;17142;47.990;7.846;2022-07-06T20:14:53;1.83;;;0.83;;
30335;SDS011;17142;47.990;7.846;2022-07-06T20:17:18;0.80;;;0.70;;
30335;SDS011;17142;47.990;7.846;2022-07-06T20:19:44;1.67;;;0.80;;
30335;SDS011;17142;47.990;7.846;2022-07-06T20:22:10;2.27;;;1.50;;
30335;SDS011;17142;47.990;7.846;2022-07-06T20:24:40;1.20;;;1.00;;
30335;SDS011;17142;47.990;7.846;2022-07-06T20:27:08;4.20;;;1.13;;
30335;SDS011;17142;47.990;7.846;2022-07-06T20:29:35;1.63;;;1.00;;
30335;SDS011;17142;47.990;7.846;2022-07-06T20:32:00;1.47;;;1.10;;
30335;SDS011;17142;47.990;7.846;2022-07-06T20:34:28;1.58;;;1.00;;